Time;durP1;ratioP1;P1;durP2;ratioP2;P2;SDS_P1;SDS_P2;PMS_P1;PMS_P2;Temp;Humidity;BMP_temperature;BMP_pressure;BME280_temperature;BME280_humidity;BME280_pressure;Samples;Min_cycle;Max_cycle;Signal;HPM_P1;HPM_P2
2023/09/27 00:00:09;;;;;;;11.10;10.60;;;;;;;;;;5109847;28;20050;-64
2023/09/27 00:02:34;;;;;;;11.05;10.55;;;;;;;;;;5108199;28;20107;-64
2023/09/27 00:04:59;;;;;;;11.18;10.68;;;;;;;;;;5102862;28;20143;-64
2023/09/27 00:07:25;;;;;;;11.60;11.10;;;;;;;;;;5096277;28;20020;-65
2023/09/27 00:09:51;;;;;;;11.48;10.98;;;;;;;;;;5109213;27;20027;-64
2023/09/27 00:12:18;;;;;;;11.27;10.77;;;;;;;;;;5103167;28;20016;-65
2023/09/27 00:14:43;;;;;;;11.23;10.73;;;;;;;;;;5108894;27;20099;-64
2023/09/27 00:17:08;;;;;;;10.98;10.48;;;;;;;;;;5105909;28;20119;-64
2023/09/27 00:19:34;;;;;;;10.93;10.43;;;;;;;;;;5090421;28;20102;-64
2023/09/27 00:21:59;;;;;;;10.98;10.48;;;;;;;;;;5108228;27;20027;-65
2023/09/27 00:24:25;;;;;;;11.60;11.10;;;;;;;;;;5107312;27;20026;-64
2023/09/27 00:26:50;;;;;;;11.10;10.60;;;;;;;;;;5086080;28;20039;-65
2023/09/27 00:29:15;;;;;;;11.00;10.50;;;;;;;;;;5105532;28;20031;-64
2023/09/27 00:31:41;;;;;;;11.23;10.73;;;;;;;;;;5107347;28;20068;-64
2023/09/27 00:34:06;;;;;;;10.88;10.38;;;;;;;;;;5101039;28;20073;-65
2023/09/27 00:36:33;;;;;;;11.20;10.70;;;;;;;;;;5104257;28;20064;-64
2023/09/27 00:38:58;;;;;;;11.00;10.50;;;;;;;;;;5106880;28;20032;-64
2023/09/27 00:41:23;;;;;;;11.50;11.00;;;;;;;;;;5107487;28;20390;-65
2023/09/27 00:43:50;;;;;;;11.18;10.68;;;;;;;;;;5085786;28;20026;-64
2023/09/27 00:46:16;;;;;;;10.85;10.35;;;;;;;;;;5105482;28;20027;-64
2023/09/27 00:48:42;;;;;;;10.73;10.23;;;;;;;;;;5109350;27;20027;-65
2023/09/27 00:51:07;;;;;;;11.00;10.50;;;;;;;;;;5107005;28;20466;-64
2023/09/27 00:53:33;;;;;;;10.63;10.13;;;;;;;;;;5107052;28;20040;-66
2023/09/27 00:55:59;;;;;;;11.02;10.52;;;;;;;;;;5117460;28;20601;-64
2023/09/27 00:58:25;;;;;;;11.05;10.55;;;;;;;;;;5113291;28;20023;-64
2023/09/27 01:00:51;;;;;;;11.57;11.05;;;;;;;;;;5111387;27;20382;-64
2023/09/27 01:03:17;;;;;;;11.10;10.60;;;;;;;;;;5108200;27;20020;-64
2023/09/27 01:05:43;;;;;;;11.30;10.80;;;;;;;;;;5110992;28;20517;-64
2023/09/27 01:08:08;;;;;;;11.27;10.77;;;;;;;;;;5112384;27;20040;-65
2023/09/27 01:10:37;;;;;;;11.25;10.75;;;;;;;;;;5111068;27;20482;-64
2023/09/27 01:13:02;;;;;;;11.10;10.60;;;;;;;;;;5113141;27;20022;-66
2023/09/27 01:15:28;;;;;;;11.07;10.57;;;;;;;;;;5110340;28;20028;-65
2023/09/27 01:17:57;;;;;;;11.20;10.70;;;;;;;;;;5108474;28;20011;-66
2023/09/27 01:20:23;;;;;;;10.70;10.20;;;;;;;;;;5112441;28;20019;-65
2023/09/27 01:22:58;;;;;;;11.00;10.50;;;;;;;;;;5112809;27;20098;-65
2023/09/27 01:25:26;;;;;;;10.90;10.40;;;;;;;;;;5108423;28;20419;-65
2023/09/27 01:27:51;;;;;;;11.25;10.75;;;;;;;;;;5112830;28;20030;-65
2023/09/27 01:30:17;;;;;;;10.77;10.27;;;;;;;;;;5112167;27;20442;-64
2023/09/27 01:32:42;;;;;;;11.57;11.07;;;;;;;;;;5103428;28;20023;-64
2023/09/27 01:35:08;;;;;;;10.90;10.40;;;;;;;;;;5108350;28;20011;-65
2023/09/27 01:37:33;;;;;;;11.20;10.70;;;;;;;;;;5113087;28;20012;-64
2023/09/27 01:39:58;;;;;;;11.32;10.82;;;;;;;;;;5112184;28;20023;-64
2023/09/27 01:42:24;;;;;;;11.30;10.80;;;;;;;;;;5110219;27;20028;-64
2023/09/27 01:44:49;;;;;;;11.05;10.55;;;;;;;;;;5109110;28;20015;-65
2023/09/27 01:47:15;;;;;;;11.30;10.80;;;;;;;;;;5108103;27;20030;-64
2023/09/27 01:49:40;;;;;;;11.40;10.90;;;;;;;;;;5108147;27;20406;-65
2023/09/27 01:52:06;;;;;;;10.75;10.25;;;;;;;;;;5108882;27;20374;-65
2023/09/27 01:54:31;;;;;;;10.70;10.20;;;;;;;;;;5108645;27;20007;-65
2023/09/27 01:56:56;;;;;;;10.93;10.43;;;;;;;;;;5092437;28;20046;-64
2023/09/27 01:59:22;;;;;;;10.95;10.45;;;;;;;;;;5111603;27;20035;-64
2023/09/27 02:01:47;;;;;;;10.65;10.15;;;;;;;;;;5106713;28;20061;-63
2023/09/27 02:04:12;;;;;;;11.32;10.82;;;;;;;;;;5114364;27;20057;-65
2023/09/27 02:06:38;;;;;;;11.50;11.00;;;;;;;;;;5110788;27;20027;-65
2023/09/27 02:09:04;;;;;;;11.35;10.85;;;;;;;;;;5104648;27;20020;-63
2023/09/27 02:11:29;;;;;;;11.10;10.60;;;;;;;;;;5106946;28;20471;-63
2023/09/27 02:13:56;;;;;;;11.07;10.57;;;;;;;;;;5111526;28;20016;-65
2023/09/27 02:16:21;;;;;;;10.98;10.48;;;;;;;;;;5112763;28;20019;-63
2023/09/27 02:18:47;;;;;;;11.00;10.50;;;;;;;;;;5118203;28;20367;-64
2023/09/27 02:21:13;;;;;;;10.82;10.32;;;;;;;;;;5108375;28;20440;-65
2023/09/27 02:23:38;;;;;;;10.82;10.32;;;;;;;;;;5106061;28;20099;-64
2023/09/27 02:26:03;;;;;;;10.80;10.30;;;;;;;;;;5107761;27;20103;-63
2023/09/27 02:28:30;;;;;;;10.93;10.43;;;;;;;;;;5109805;27;20023;-64
2023/09/27 02:30:55;;;;;;;10.93;10.43;;;;;;;;;;5113883;27;20024;-64
2023/09/27 02:33:20;;;;;;;11.02;10.52;;;;;;;;;;5111162;27;20399;-63
2023/09/27 02:35:46;;;;;;;11.07;10.57;;;;;;;;;;5111558;27;20471;-64
2023/09/27 02:38:11;;;;;;;11.32;10.82;;;;;;;;;;5109471;28;20023;-64
2023/09/27 02:40:37;;;;;;;11.18;10.68;;;;;;;;;;5107654;27;20031;-63
2023/09/27 02:43:03;;;;;;;11.25;10.75;;;;;;;;;;5100325;28;20020;-65
2023/09/27 02:45:28;;;;;;;10.70;10.20;;;;;;;;;;5102367;28;20024;-64
2023/09/27 02:47:54;;;;;;;11.40;10.90;;;;;;;;;;5112066;27;20019;-64
2023/09/27 02:50:19;;;;;;;10.60;10.10;;;;;;;;;;5110878;28;20024;-65
2023/09/27 02:52:44;;;;;;;11.30;10.80;;;;;;;;;;5109470;28;20024;-65
2023/09/27 02:55:10;;;;;;;11.38;10.88;;;;;;;;;;5109744;27;20551;-64
2023/09/27 02:57:36;;;;;;;11.07;10.57;;;;;;;;;;5100654;27;20051;-63
2023/09/27 03:00:03;;;;;;;11.07;10.57;;;;;;;;;;5110920;27;20031;-64
2023/09/27 03:02:31;;;;;;;11.38;10.88;;;;;;;;;;5111770;27;20041;-65
2023/09/27 03:04:58;;;;;;;10.90;10.40;;;;;;;;;;5111244;28;20086;-64
2023/09/27 03:07:23;;;;;;;11.95;11.35;;;;;;;;;;5095845;27;20084;-65
2023/09/27 03:09:48;;;;;;;10.98;10.48;;;;;;;;;;5111487;27;20433;-64
2023/09/27 03:12:14;;;;;;;10.85;10.35;;;;;;;;;;5107810;27;20034;-64
2023/09/27 03:14:39;;;;;;;10.88;10.38;;;;;;;;;;5108907;27;20015;-64
2023/09/27 03:17:05;;;;;;;10.88;10.38;;;;;;;;;;5109133;28;20032;-64
2023/09/27 03:19:30;;;;;;;10.20;9.70;;;;;;;;;;5091993;28;20027;-63
2023/09/27 03:21:56;;;;;;;10.93;10.43;;;;;;;;;;5109068;27;20483;-63
2023/09/27 03:24:21;;;;;;;10.88;10.38;;;;;;;;;;5111106;27;20024;-64
2023/09/27 03:26:47;;;;;;;10.80;10.30;;;;;;;;;;5114527;27;20092;-64
2023/09/27 03:29:13;;;;;;;11.00;10.50;;;;;;;;;;5111165;27;20386;-64
2023/09/27 03:31:38;;;;;;;11.10;10.60;;;;;;;;;;5111419;27;20142;-64
2023/09/27 03:34:05;;;;;;;11.00;10.50;;;;;;;;;;5106756;27;20015;-65
2023/09/27 03:36:30;;;;;;;10.75;10.25;;;;;;;;;;5108402;27;20043;-65
2023/09/27 03:38:57;;;;;;;11.05;10.55;;;;;;;;;;5107744;27;20126;-65
2023/09/27 03:41:22;;;;;;;11.30;10.80;;;;;;;;;;5107118;28;20023;-65
2023/09/27 03:43:50;;;;;;;10.60;10.10;;;;;;;;;;5110495;27;20028;-66
2023/09/27 03:46:15;;;;;;;10.93;10.43;;;;;;;;;;5102083;28;20027;-65
2023/09/27 03:48:41;;;;;;;10.90;10.40;;;;;;;;;;5108483;28;20023;-64
2023/09/27 03:51:06;;;;;;;10.80;10.30;;;;;;;;;;5108778;27;20662;-64
2023/09/27 03:53:31;;;;;;;10.82;10.32;;;;;;;;;;5103868;27;20083;-64
2023/09/27 03:55:57;;;;;;;10.55;10.05;;;;;;;;;;5109646;27;20943;-65
2023/09/27 03:58:22;;;;;;;11.10;10.60;;;;;;;;;;5093806;28;20020;-64
2023/09/27 04:00:47;;;;;;;10.35;9.85;;;;;;;;;;5105042;28;20081;-64
2023/09/27 04:03:13;;;;;;;11.20;10.70;;;;;;;;;;5105399;28;20030;-64
2023/09/27 04:05:38;;;;;;;11.32;10.82;;;;;;;;;;5103232;27;20052;-66
2023/09/27 04:08:03;;;;;;;10.82;10.32;;;;;;;;;;5104455;27;20076;-65
2023/09/27 04:10:31;;;;;;;10.93;10.43;;;;;;;;;;5108674;27;20143;-65
2023/09/27 04:12:57;;;;;;;10.25;9.75;;;;;;;;;;5111029;27;20030;-65
2023/09/27 04:15:22;;;;;;;11.15;10.65;;;;;;;;;;5109863;27;20467;-64
2023/09/27 04:17:47;;;;;;;10.77;10.27;;;;;;;;;;5107605;27;20445;-65
2023/09/27 04:20:21;;;;;;;11.02;10.52;;;;;;;;;;5105387;27;20031;-65
2023/09/27 04:22:47;;;;;;;11.23;10.73;;;;;;;;;;5107864;27;20032;-65
2023/09/27 04:25:14;;;;;;;11.00;10.50;;;;;;;;;;5101253;28;20521;-62
2023/09/27 04:27:44;;;;;;;10.68;10.18;;;;;;;;;;5103844;28;20036;-62
2023/09/27 04:30:11;;;;;;;11.32;10.82;;;;;;;;;;5105694;28;20043;-62
2023/09/27 04:32:44;;;;;;;11.52;11.02;;;;;;;;;;5106318;28;20027;-62
2023/09/27 04:35:12;;;;;;;11.38;10.88;;;;;;;;;;5104127;27;20055;-62
2023/09/27 04:37:38;;;;;;;11.35;10.85;;;;;;;;;;5104516;28;20531;-62
2023/09/27 04:40:17;;;;;;;11.32;10.82;;;;;;;;;;5101154;28;20551;-62
2023/09/27 04:42:43;;;;;;;11.18;10.68;;;;;;;;;;5104617;28;20016;-63
2023/09/27 04:45:10;;;;;;;11.55;11.05;;;;;;;;;;5079541;28;20012;-62
2023/09/27 04:47:35;;;;;;;11.55;11.05;;;;;;;;;;5104191;28;20020;-62
2023/09/27 04:50:01;;;;;;;11.82;11.32;;;;;;;;;;5097825;28;20415;-62
2023/09/27 04:52:26;;;;;;;11.40;10.90;;;;;;;;;;5096977;28;20027;-63
2023/09/27 04:54:56;;;;;;;12.00;11.50;;;;;;;;;;5106200;28;20015;-62
2023/09/27 04:57:22;;;;;;;11.65;11.15;;;;;;;;;;5102906;28;20023;-63
2023/09/27 04:59:48;;;;;;;11.38;10.88;;;;;;;;;;5107750;28;20022;-62
2023/09/27 05:02:13;;;;;;;11.80;11.30;;;;;;;;;;5102675;28;20023;-62
2023/09/27 05:04:39;;;;;;;11.43;10.93;;;;;;;;;;5110067;28;20048;-62
2023/09/27 05:07:04;;;;;;;11.45;10.95;;;;;;;;;;5112909;28;20031;-64
2023/09/27 05:09:29;;;;;;;11.40;10.90;;;;;;;;;;5105413;28;20026;-62
2023/09/27 05:11:55;;;;;;;11.80;11.30;;;;;;;;;;5107519;28;20429;-63
2023/09/27 05:14:20;;;;;;;11.55;11.05;;;;;;;;;;5104115;28;20468;-63
2023/09/27 05:16:45;;;;;;;11.85;11.35;;;;;;;;;;5106745;28;20501;-63
2023/09/27 05:19:11;;;;;;;11.68;11.18;;;;;;;;;;5081240;28;20020;-63
2023/09/27 05:21:36;;;;;;;11.88;11.38;;;;;;;;;;5109555;28;20042;-63
2023/09/27 05:24:02;;;;;;;11.68;11.18;;;;;;;;;;5101527;28;20020;-63
2023/09/27 05:26:27;;;;;;;11.68;11.18;;;;;;;;;;5107670;28;20032;-63
2023/09/27 05:28:53;;;;;;;11.77;11.27;;;;;;;;;;5101133;28;20062;-63
2023/09/27 05:31:19;;;;;;;11.80;11.30;;;;;;;;;;5102585;28;20448;-61
2023/09/27 05:33:44;;;;;;;11.90;11.40;;;;;;;;;;5100118;28;20029;-63
2023/09/27 05:36:10;;;;;;;11.90;11.40;;;;;;;;;;5096419;28;20017;-62
2023/09/27 05:38:35;;;;;;;11.50;11.00;;;;;;;;;;5098775;28;20023;-65
2023/09/27 05:41:00;;;;;;;11.90;11.40;;;;;;;;;;5101839;28;20051;-63
2023/09/27 05:43:26;;;;;;;11.95;11.45;;;;;;;;;;5098693;28;20016;-63
2023/09/27 05:45:52;;;;;;;12.05;11.55;;;;;;;;;;5095469;28;20471;-63
2023/09/27 05:48:19;;;;;;;12.18;11.68;;;;;;;;;;5102411;27;20040;-63
2023/09/27 05:50:47;;;;;;;11.95;11.45;;;;;;;;;;5101948;27;20184;-63
2023/09/27 05:53:15;;;;;;;11.90;11.40;;;;;;;;;;5106714;27;20013;-63
2023/09/27 05:55:42;;;;;;;12.13;11.63;;;;;;;;;;5111804;28;20031;-63
2023/09/27 05:58:07;;;;;;;11.95;11.45;;;;;;;;;;5106313;28;20020;-63
2023/09/27 06:00:38;;;;;;;12.05;11.55;;;;;;;;;;5107040;27;20106;-63
2023/09/27 06:03:07;;;;;;;12.13;11.63;;;;;;;;;;5103826;28;20403;-63
2023/09/27 06:05:32;;;;;;;12.18;11.68;;;;;;;;;;5101382;27;20047;-65
2023/09/27 06:07:58;;;;;;;12.20;11.70;;;;;;;;;;5102481;27;20552;-64
2023/09/27 06:10:23;;;;;;;11.95;11.45;;;;;;;;;;5104022;28;20031;-63
2023/09/27 06:12:49;;;;;;;12.10;11.60;;;;;;;;;;5104365;28;20020;-62
2023/09/27 06:15:14;;;;;;;12.05;11.55;;;;;;;;;;5106202;27;20098;-63
2023/09/27 06:17:40;;;;;;;11.80;11.30;;;;;;;;;;5104765;28;20035;-63
2023/09/27 06:20:11;;;;;;;12.25;11.75;;;;;;;;;;5095318;27;20024;-62
2023/09/27 06:22:37;;;;;;;11.93;11.43;;;;;;;;;;5107231;27;20080;-62
2023/09/27 06:25:02;;;;;;;12.40;11.80;;;;;;;;;;5108680;27;20023;-63
2023/09/27 06:27:28;;;;;;;12.40;11.90;;;;;;;;;;5113092;27;20509;-62
2023/09/27 06:29:53;;;;;;;12.55;11.95;;;;;;;;;;5112446;27;20063;-61
2023/09/27 06:32:19;;;;;;;12.07;11.57;;;;;;;;;;5099995;27;20039;-62
2023/09/27 06:34:44;;;;;;;12.40;11.88;;;;;;;;;;5103497;27;20023;-63
2023/09/27 06:37:09;;;;;;;12.35;11.80;;;;;;;;;;5097747;27;20034;-63
2023/09/27 06:39:35;;;;;;;12.67;12.07;;;;;;;;;;5095805;27;20079;-63
2023/09/27 06:42:00;;;;;;;12.30;11.80;;;;;;;;;;5106535;27;20275;-64
2023/09/27 06:44:25;;;;;;;12.30;11.80;;;;;;;;;;5103435;27;20026;-64
2023/09/27 06:46:52;;;;;;;12.37;11.87;;;;;;;;;;5106227;27;20268;-64
2023/09/27 06:49:17;;;;;;;12.30;11.80;;;;;;;;;;5107108;27;20738;-63
2023/09/27 06:51:43;;;;;;;12.65;12.05;;;;;;;;;;5100140;27;20036;-67
2023/09/27 06:54:08;;;;;;;12.50;11.90;;;;;;;;;;5100629;27;20078;-65
2023/09/27 06:56:34;;;;;;;12.23;11.73;;;;;;;;;;5076435;28;20024;-64
2023/09/27 06:59:00;;;;;;;12.00;11.50;;;;;;;;;;5096424;27;20508;-63
2023/09/27 07:01:26;;;;;;;12.30;11.80;;;;;;;;;;5101120;27;20263;-63
2023/09/27 07:03:51;;;;;;;12.57;11.98;;;;;;;;;;5093669;27;20046;-64
2023/09/27 07:06:17;;;;;;;12.53;11.93;;;;;;;;;;5076853;28;20067;-63
2023/09/27 07:08:44;;;;;;;12.25;11.75;;;;;;;;;;5082809;28;20277;-63
2023/09/27 07:11:10;;;;;;;12.57;11.98;;;;;;;;;;5075934;28;20466;-65
2023/09/27 07:13:39;;;;;;;12.57;11.98;;;;;;;;;;5070531;28;20025;-64
2023/09/27 07:16:18;;;;;;;12.27;11.77;;;;;;;;;;5076783;28;20024;-62
2023/09/27 07:18:44;;;;;;;12.20;11.70;;;;;;;;;;5079096;28;20107;-63
2023/09/27 07:21:10;;;;;;;12.18;11.68;;;;;;;;;;5060855;28;20127;-63
2023/09/27 07:23:35;;;;;;;12.10;11.60;;;;;;;;;;5057367;28;20479;-64
2023/09/27 07:26:00;;;;;;;12.20;11.70;;;;;;;;;;5068025;28;20054;-65
2023/09/27 07:28:26;;;;;;;12.13;11.63;;;;;;;;;;5079476;28;20614;-64
2023/09/27 07:30:52;;;;;;;12.00;11.50;;;;;;;;;;5077025;28;20023;-63
2023/09/27 07:33:18;;;;;;;11.80;11.30;;;;;;;;;;5078597;28;20036;-63
2023/09/27 07:35:44;;;;;;;12.05;11.55;;;;;;;;;;5078881;28;20024;-64
2023/09/27 07:38:10;;;;;;;12.27;11.77;;;;;;;;;;5077226;28;20031;-65
2023/09/27 07:40:36;;;;;;;12.10;11.60;;;;;;;;;;5076671;28;20025;-64
2023/09/27 07:43:01;;;;;;;12.48;11.90;;;;;;;;;;5078526;28;20017;-66
2023/09/27 07:45:28;;;;;;;12.30;11.80;;;;;;;;;;5075940;28;20429;-65
2023/09/27 07:47:54;;;;;;;12.20;11.70;;;;;;;;;;5076149;28;20032;-65
2023/09/27 07:50:27;;;;;;;12.00;11.50;;;;;;;;;;5077454;28;20027;-64
2023/09/27 07:52:56;;;;;;;12.18;11.68;;;;;;;;;;5079065;28;20428;-65
2023/09/27 07:55:21;;;;;;;12.13;11.63;;;;;;;;;;5084391;28;20027;-64
2023/09/27 07:57:47;;;;;;;12.23;11.73;;;;;;;;;;5077337;28;20024;-65
2023/09/27 08:00:15;;;;;;;12.15;11.65;;;;;;;;;;5078151;28;20035;-66
2023/09/27 08:02:41;;;;;;;12.18;11.68;;;;;;;;;;5077554;28;20070;-65
2023/09/27 08:05:09;;;;;;;12.10;11.60;;;;;;;;;;5068557;28;20044;-65
2023/09/27 08:07:38;;;;;;;12.15;11.65;;;;;;;;;;5073408;28;20116;-65
2023/09/27 08:10:05;;;;;;;12.07;11.57;;;;;;;;;;5073669;28;20013;-65
2023/09/27 08:12:32;;;;;;;11.85;11.35;;;;;;;;;;5074906;28;20028;-64
2023/09/27 08:14:58;;;;;;;12.10;11.60;;;;;;;;;;5080470;28;20027;-63
2023/09/27 08:17:23;;;;;;;12.10;11.60;;;;;;;;;;5074592;28;20017;-64
2023/09/27 08:19:49;;;;;;;12.18;11.68;;;;;;;;;;5072879;28;20032;-65
2023/09/27 08:22:14;;;;;;;12.23;11.73;;;;;;;;;;5071576;28;20570;-63
2023/09/27 08:24:40;;;;;;;12.32;11.82;;;;;;;;;;5077369;28;20024;-66
2023/09/27 08:27:05;;;;;;;12.15;11.65;;;;;;;;;;5060059;28;20051;-63
2023/09/27 08:29:31;;;;;;;12.15;11.65;;;;;;;;;;5072126;28;20471;-63
2023/09/27 08:31:56;;;;;;;12.50;11.93;;;;;;;;;;5080756;28;20016;-63
2023/09/27 08:34:22;;;;;;;12.30;11.80;;;;;;;;;;5076909;28;20570;-62
2023/09/27 08:36:48;;;;;;;12.27;11.77;;;;;;;;;;5079590;28;20024;-63
2023/09/27 08:39:14;;;;;;;12.32;11.82;;;;;;;;;;5078132;28;20027;-62
2023/09/27 08:41:40;;;;;;;12.60;12.00;;;;;;;;;;5076098;28;20034;-63
2023/09/27 08:44:06;;;;;;;12.73;12.13;;;;;;;;;;5081477;28;20033;-63
2023/09/27 08:46:33;;;;;;;12.70;12.10;;;;;;;;;;5073301;28;20033;-63
2023/09/27 08:48:59;;;;;;;12.57;11.98;;;;;;;;;;5063299;28;20040;-63
2023/09/27 08:51:26;;;;;;;12.32;11.77;;;;;;;;;;5070857;28;20044;-63
2023/09/27 08:53:51;;;;;;;12.63;12.02;;;;;;;;;;5072397;28;20103;-61
2023/09/27 08:56:17;;;;;;;12.52;11.93;;;;;;;;;;5071508;28;20019;-61
2023/09/27 08:58:44;;;;;;;12.80;12.20;;;;;;;;;;5072969;28;20510;-62
2023/09/27 09:01:10;;;;;;;12.95;12.35;;;;;;;;;;5072595;28;20415;-65
2023/09/27 09:03:37;;;;;;;12.73;12.13;;;;;;;;;;5078405;28;20028;-64
2023/09/27 09:06:04;;;;;;;13.18;12.57;;;;;;;;;;5077533;28;20044;-63
2023/09/27 09:08:30;;;;;;;12.60;12.00;;;;;;;;;;5078204;28;20020;-62
2023/09/27 09:10:55;;;;;;;12.73;12.13;;;;;;;;;;5076752;28;20472;-64
2023/09/27 09:13:22;;;;;;;12.70;12.10;;;;;;;;;;5082786;28;20144;-62
2023/09/27 09:15:48;;;;;;;12.60;12.00;;;;;;;;;;5074985;28;20694;-61
2023/09/27 09:18:36;;;;;;;12.43;11.85;;;;;;;;;;5073811;28;20409;-63
2023/09/27 09:21:08;;;;;;;12.68;12.07;;;;;;;;;;5077465;28;20047;-64
2023/09/27 09:23:37;;;;;;;12.02;11.52;;;;;;;;;;5078295;28;20023;-65
2023/09/27 09:26:06;;;;;;;12.50;11.93;;;;;;;;;;5082172;28;20048;-63
2023/09/27 09:28:31;;;;;;;12.57;11.98;;;;;;;;;;5078431;28;20051;-63
2023/09/27 09:30:57;;;;;;;11.98;11.48;;;;;;;;;;5077970;28;20084;-63
2023/09/27 09:33:24;;;;;;;12.95;12.35;;;;;;;;;;5079896;28;20028;-63
2023/09/27 09:35:51;;;;;;;12.25;11.75;;;;;;;;;;5076596;28;20070;-64
2023/09/27 09:38:25;;;;;;;12.70;12.10;;;;;;;;;;5083246;28;20050;-63
2023/09/27 09:40:54;;;;;;;12.85;12.25;;;;;;;;;;5079905;28;20028;-62
2023/09/27 09:43:36;;;;;;;13.00;12.40;;;;;;;;;;5078764;28;20061;-62
2023/09/27 09:46:03;;;;;;;12.43;11.88;;;;;;;;;;5075916;28;20032;-63
2023/09/27 09:48:29;;;;;;;12.57;11.98;;;;;;;;;;5080296;28;20032;-62
2023/09/27 09:50:58;;;;;;;12.73;12.13;;;;;;;;;;5083827;28;20041;-62
2023/09/27 09:53:23;;;;;;;12.57;11.98;;;;;;;;;;5078585;28;20327;-63
2023/09/27 09:55:50;;;;;;;12.13;11.63;;;;;;;;;;5085980;28;20095;-63
2023/09/27 09:58:30;;;;;;;12.10;11.60;;;;;;;;;;5082729;28;20490;-63
2023/09/27 10:00:58;;;;;;;12.13;11.63;;;;;;;;;;5083785;28;20024;-63
2023/09/27 10:03:25;;;;;;;12.52;11.93;;;;;;;;;;5086248;28;20581;-62
2023/09/27 10:05:51;;;;;;;12.30;11.80;;;;;;;;;;5086825;28;20546;-62
2023/09/27 10:08:18;;;;;;;12.38;11.85;;;;;;;;;;5086325;28;20027;-64
2023/09/27 10:10:44;;;;;;;12.38;11.82;;;;;;;;;;5070530;28;20077;-64
2023/09/27 10:13:09;;;;;;;12.20;11.70;;;;;;;;;;5085702;28;20489;-62
2023/09/27 10:15:35;;;;;;;12.50;11.90;;;;;;;;;;5067584;28;20544;-63
2023/09/27 10:18:19;;;;;;;12.15;11.65;;;;;;;;;;5084603;28;20020;-64
2023/09/27 10:21:03;;;;;;;12.02;11.52;;;;;;;;;;5077537;28;20032;-63
2023/09/27 10:23:43;;;;;;;12.30;11.80;;;;;;;;;;5084984;28;20119;-64
2023/09/27 10:26:27;;;;;;;12.07;11.57;;;;;;;;;;5076486;28;20024;-62
2023/09/27 10:29:03;;;;;;;11.90;11.40;;;;;;;;;;5077542;28;20024;-64
2023/09/27 10:31:32;;;;;;;12.55;11.95;;;;;;;;;;5079894;28;20060;-62
2023/09/27 10:33:57;;;;;;;12.35;11.82;;;;;;;;;;5062549;28;20020;-63
2023/09/27 10:36:22;;;;;;;12.70;12.10;;;;;;;;;;5087560;28;20444;-63
2023/09/27 10:38:51;;;;;;;12.43;11.90;;;;;;;;;;5082958;28;20024;-62
2023/09/27 10:41:32;;;;;;;12.10;11.60;;;;;;;;;;5075145;28;20663;-62
2023/09/27 10:43:57;;;;;;;11.82;11.32;;;;;;;;;;5078160;28;20028;-65
2023/09/27 10:46:24;;;;;;;12.77;12.18;;;;;;;;;;5083445;28;20032;-63
2023/09/27 10:48:55;;;;;;;12.27;11.77;;;;;;;;;;5081829;28;20158;-64
2023/09/27 10:51:21;;;;;;;12.52;11.95;;;;;;;;;;5079066;28;20409;-61
2023/09/27 10:53:48;;;;;;;12.75;12.15;;;;;;;;;;5072773;28;20027;-63
2023/09/27 10:56:14;;;;;;;12.13;11.63;;;;;;;;;;5077951;28;20027;-63
2023/09/27 10:58:46;;;;;;;12.02;11.52;;;;;;;;;;5078907;28;20035;-62
2023/09/27 11:01:18;;;;;;;12.55;11.95;;;;;;;;;;5077686;28;20387;-63
2023/09/27 11:03:43;;;;;;;11.82;11.32;;;;;;;;;;5074084;28;20122;-61
2023/09/27 11:06:09;;;;;;;12.35;11.85;;;;;;;;;;5077815;28;20135;-63
2023/09/27 11:08:34;;;;;;;12.85;12.25;;;;;;;;;;5068605;28;20032;-61
2023/09/27 11:11:00;;;;;;;11.85;11.35;;;;;;;;;;5078682;28;20409;-62
2023/09/27 11:13:29;;;;;;;13.35;12.75;;;;;;;;;;5072835;28;20961;-60
2023/09/27 11:16:05;;;;;;;12.60;12.00;;;;;;;;;;5082735;28;20264;-60
2023/09/27 11:18:33;;;;;;;12.55;12.00;;;;;;;;;;5076176;28;20035;-61
2023/09/27 11:21:07;;;;;;;12.30;11.80;;;;;;;;;;5077713;28;20887;-62
2023/09/27 11:23:52;;;;;;;12.07;11.57;;;;;;;;;;5074768;28;20032;-62
2023/09/27 11:26:19;;;;;;;11.82;11.32;;;;;;;;;;5077216;28;20039;-62
2023/09/27 11:28:44;;;;;;;12.13;11.63;;;;;;;;;;5079169;28;20024;-62
2023/09/27 11:31:10;;;;;;;12.27;11.73;;;;;;;;;;5076196;28;20036;-63
2023/09/27 11:33:35;;;;;;;12.68;12.07;;;;;;;;;;5076211;28;20020;-61
2023/09/27 11:36:04;;;;;;;12.23;11.73;;;;;;;;;;5075695;28;20064;-62
2023/09/27 11:38:29;;;;;;;12.60;12.00;;;;;;;;;;5072880;28;20609;-61
2023/09/27 11:40:55;;;;;;;12.50;11.90;;;;;;;;;;5073877;28;20054;-62
2023/09/27 11:43:21;;;;;;;12.10;11.60;;;;;;;;;;5074161;28;20088;-63
2023/09/27 11:45:47;;;;;;;12.35;11.82;;;;;;;;;;5075889;28;20102;-63
2023/09/27 11:48:13;;;;;;;12.27;11.75;;;;;;;;;;5079409;28;20024;-63
2023/09/27 11:50:39;;;;;;;12.63;12.02;;;;;;;;;;5082044;28;20024;-62
2023/09/27 11:53:04;;;;;;;12.50;11.90;;;;;;;;;;5078556;28;20081;-63
2023/09/27 11:55:30;;;;;;;11.68;11.18;;;;;;;;;;5080380;28;20071;-61
2023/09/27 11:57:59;;;;;;;12.40;11.80;;;;;;;;;;5082069;28;20044;-61
2023/09/27 12:00:24;;;;;;;12.40;11.85;;;;;;;;;;5079436;28;20115;-63
2023/09/27 12:02:50;;;;;;;11.98;11.48;;;;;;;;;;5082646;28;20143;-62
2023/09/27 12:05:16;;;;;;;12.25;11.75;;;;;;;;;;5077274;28;20052;-64
2023/09/27 12:07:43;;;;;;;11.85;11.35;;;;;;;;;;5084528;28;20016;-64
2023/09/27 12:10:09;;;;;;;11.90;11.40;;;;;;;;;;5078853;28;20408;-61
2023/09/27 12:12:34;;;;;;;11.77;11.27;;;;;;;;;;5082078;28;20023;-62
2023/09/27 12:15:00;;;;;;;11.80;11.30;;;;;;;;;;5079884;28;20024;-62
2023/09/27 12:17:26;;;;;;;12.30;11.80;;;;;;;;;;5082939;28;20020;-62
2023/09/27 12:19:53;;;;;;;12.20;11.70;;;;;;;;;;5080701;28;20060;-62
2023/09/27 12:22:19;;;;;;;12.23;11.73;;;;;;;;;;5080684;28;20174;-61
2023/09/27 12:24:45;;;;;;;12.20;11.70;;;;;;;;;;5076184;28;20032;-63
2023/09/27 12:27:10;;;;;;;11.88;11.38;;;;;;;;;;5082776;28;20020;-64
2023/09/27 12:29:35;;;;;;;11.63;11.13;;;;;;;;;;5062537;28;20134;-62
2023/09/27 12:32:01;;;;;;;12.40;11.85;;;;;;;;;;5077598;28;20016;-63
2023/09/27 12:34:28;;;;;;;12.23;11.73;;;;;;;;;;5062492;28;20131;-64
2023/09/27 12:36:53;;;;;;;11.75;11.25;;;;;;;;;;5071536;28;20024;-61
2023/09/27 12:39:19;;;;;;;11.80;11.30;;;;;;;;;;5075944;28;20055;-62
2023/09/27 12:41:44;;;;;;;11.75;11.25;;;;;;;;;;5076845;28;20027;-61
2023/09/27 12:44:10;;;;;;;12.00;11.50;;;;;;;;;;5079632;28;20475;-63
2023/09/27 12:46:35;;;;;;;12.15;11.65;;;;;;;;;;5080040;28;20151;-61
2023/09/27 12:49:00;;;;;;;11.95;11.45;;;;;;;;;;5080357;28;20029;-61
2023/09/27 12:51:26;;;;;;;11.95;11.45;;;;;;;;;;5079047;28;20217;-62
2023/09/27 12:53:52;;;;;;;11.93;11.43;;;;;;;;;;5077544;28;20026;-62
2023/09/27 12:56:18;;;;;;;11.68;11.18;;;;;;;;;;5083951;28;20484;-62
2023/09/27 12:58:44;;;;;;;12.05;11.55;;;;;;;;;;5076369;28;20085;-62
2023/09/27 13:01:16;;;;;;;11.95;11.45;;;;;;;;;;5079535;28;20028;-65
2023/09/27 13:03:42;;;;;;;11.88;11.38;;;;;;;;;;5076622;27;20031;-61
2023/09/27 13:06:08;;;;;;;11.40;10.90;;;;;;;;;;5077672;28;20032;-62
2023/09/27 13:08:34;;;;;;;11.65;11.15;;;;;;;;;;5080655;28;20028;-62
2023/09/27 13:11:00;;;;;;;11.57;11.07;;;;;;;;;;5082437;28;20035;-62
2023/09/27 13:13:26;;;;;;;11.68;11.18;;;;;;;;;;5081205;28;20492;-62
2023/09/27 13:15:52;;;;;;;12.48;11.88;;;;;;;;;;5072204;28;20025;-63
2023/09/27 13:18:17;;;;;;;11.93;11.43;;;;;;;;;;5053558;28;20321;-62
2023/09/27 13:20:42;;;;;;;11.87;11.37;;;;;;;;;;5077425;28;21916;-63
2023/09/27 13:23:08;;;;;;;11.57;11.07;;;;;;;;;;5060810;28;20307;-63
2023/09/27 13:25:33;;;;;;;11.60;11.10;;;;;;;;;;5080685;28;20020;-63
2023/09/27 13:27:58;;;;;;;12.10;11.60;;;;;;;;;;5074501;28;20147;-63
2023/09/27 13:30:23;;;;;;;11.80;11.30;;;;;;;;;;5074374;28;20020;-62
2023/09/27 13:32:49;;;;;;;11.63;11.13;;;;;;;;;;5079040;28;20089;-64
2023/09/27 13:35:14;;;;;;;11.60;11.10;;;;;;;;;;5056722;28;20536;-62
2023/09/27 13:37:40;;;;;;;11.75;11.25;;;;;;;;;;5075644;28;20036;-62
2023/09/27 13:40:12;;;;;;;11.48;10.98;;;;;;;;;;5072637;28;20054;-64
2023/09/27 13:42:37;;;;;;;11.63;11.13;;;;;;;;;;5043490;28;20032;-62
2023/09/27 13:45:04;;;;;;;11.65;11.15;;;;;;;;;;5071854;28;20024;-62
2023/09/27 13:47:29;;;;;;;11.85;11.35;;;;;;;;;;5076644;28;20035;-63
2023/09/27 13:49:55;;;;;;;11.88;11.38;;;;;;;;;;5075826;28;20032;-61
2023/09/27 13:52:20;;;;;;;11.80;11.30;;;;;;;;;;5069441;28;20623;-61
2023/09/27 13:54:45;;;;;;;11.93;11.43;;;;;;;;;;5077279;28;20138;-64
2023/09/27 13:57:11;;;;;;;11.85;11.35;;;;;;;;;;5078288;28;20163;-63
2023/09/27 13:59:38;;;;;;;11.82;11.32;;;;;;;;;;5074038;28;20108;-63
2023/09/27 14:02:03;;;;;;;11.88;11.38;;;;;;;;;;5071981;28;20029;-62
2023/09/27 14:04:28;;;;;;;11.70;11.20;;;;;;;;;;5082088;28;20076;-62
2023/09/27 14:06:54;;;;;;;11.60;11.10;;;;;;;;;;5097346;27;20031;-62
2023/09/27 14:09:19;;;;;;;12.05;11.55;;;;;;;;;;5103976;27;20039;-62
2023/09/27 14:11:45;;;;;;;11.90;11.40;;;;;;;;;;5103562;27;20053;-60